Terminal Aerodrome Forecast
Issued by NWS Wichita, KS

Home | Current Version | Previous Version | Graphics & Text | Print | Product List | Glossary On
Versions: 1 2 3 4 5 6 7 8 9 10 11 12 13 14
000
FTUS43 KICT 201740
TAFICT
TAF
KICT 201740Z 2018/2118 21009KT P6SM SKC
     FM210000 16011KT P6SM SKC
     FM211000 18007KT P6SM FEW200
     FM211500 19011KT P6SM FEW200=

USA.gov is the U.S. government's official web portal to all federal, state and local government web resources and services.